createdAt,value
2022-12-28T00:01:33.687Z,1.26
2022-12-28T00:05:50.777Z,1.22
2022-12-28T00:10:07.855Z,1.05
2022-12-28T00:14:25.352Z,0.80
2022-12-28T00:18:43.345Z,0.83
2022-12-28T00:23:00.527Z,0.95
2022-12-28T00:27:17.424Z,1.09
2022-12-28T00:31:34.770Z,1.15
2022-12-28T00:35:56.240Z,1.28
2022-12-28T00:40:15.423Z,1.35
2022-12-28T00:44:35.971Z,1.40
2022-12-28T00:48:52.975Z,1.47
2022-12-28T00:53:11.014Z,1.44
2022-12-28T00:57:27.941Z,1.49
2022-12-28T01:01:45.045Z,1.49
2022-12-28T01:06:07.071Z,1.53
2022-12-28T01:10:24.071Z,1.49
2022-12-28T01:14:41.154Z,1.53
2022-12-28T01:19:01.421Z,1.50
2022-12-28T01:23:18.539Z,1.23
2022-12-28T01:27:35.434Z,1.06
2022-12-28T01:31:52.575Z,1.08
2022-12-28T01:36:15.835Z,0.85
2022-12-28T01:40:32.881Z,0.42
2022-12-28T01:44:52.936Z,-0.09
2022-12-28T01:49:40.338Z,-0.61
2022-12-28T01:53:59.553Z,-1.05
2022-12-28T01:58:25.261Z,-1.37
2022-12-28T02:02:51.555Z,-1.61
2022-12-28T02:07:09.312Z,-1.81
2022-12-28T02:11:26.543Z,-2.01
2022-12-28T02:15:45.096Z,-2.17
2022-12-28T02:20:04.015Z,-2.24
2022-12-28T02:24:49.908Z,-2.33
2022-12-28T02:29:35.419Z,-2.46
2022-12-28T02:34:08.810Z,-2.54
2022-12-28T02:38:42.175Z,-2.58
2022-12-28T02:43:01.626Z,-2.62
2022-12-28T02:47:37.666Z,-2.77
2022-12-28T02:52:07.585Z,-2.91
2022-12-28T02:56:49.794Z,-2.85
2022-12-28T03:01:18.840Z,-2.96
2022-12-28T03:06:19.664Z,-2.89
2022-12-28T03:10:52.076Z,-2.91
2022-12-28T03:15:30.163Z,-2.96
2022-12-28T03:20:16.934Z,-3.09
2022-12-28T03:24:56.022Z,-3.09
2022-12-28T03:29:35.312Z,-3.19
2022-12-28T03:34:07.128Z,-3.30
2022-12-28T03:38:58.059Z,-3.24
2022-12-28T03:43:43.027Z,-3.26
2022-12-28T03:48:03.032Z,-3.36
2022-12-28T03:52:20.207Z,-3.44
2022-12-28T03:56:47.654Z,-3.58
2022-12-28T04:01:05.955Z,-3.61
2022-12-28T04:05:22.963Z,-3.61
2022-12-28T04:09:40.079Z,-3.59
2022-12-28T04:13:57.166Z,-3.61
2022-12-28T04:18:14.245Z,-3.68
2022-12-28T04:22:31.130Z,-3.67
2022-12-28T04:26:49.318Z,-3.68
2022-12-28T04:31:07.974Z,-3.70
2022-12-28T04:35:25.063Z,-3.64
2022-12-28T04:39:55.451Z,-3.64
2022-12-28T04:44:13.705Z,-3.68
2022-12-28T04:48:31.328Z,-3.70
2022-12-28T04:52:48.372Z,-3.65
2022-12-28T04:57:05.250Z,-3.70
2022-12-28T05:01:22.618Z,-3.81
2022-12-28T05:05:39.546Z,-3.83
2022-12-28T05:09:56.654Z,-3.74
2022-12-28T05:14:13.650Z,-3.75
2022-12-28T05:18:30.943Z,-3.67
2022-12-28T05:22:47.784Z,-3.68
2022-12-28T05:27:04.906Z,-3.75
2022-12-28T05:31:23.431Z,-3.75
2022-12-28T05:35:40.575Z,-3.91
2022-12-28T05:39:57.604Z,-3.99
2022-12-28T05:44:14.634Z,-3.93
2022-12-28T05:48:36.111Z,-3.88
2022-12-28T05:52:53.263Z,-3.85
2022-12-28T05:57:10.117Z,-3.95
2022-12-28T06:01:34.699Z,-3.99
2022-12-28T06:05:51.626Z,-3.98
2022-12-28T06:10:09.349Z,-3.93
2022-12-28T06:14:26.280Z,-3.91
2022-12-28T06:18:44.343Z,-4.05
2022-12-28T06:23:01.233Z,-4.02
2022-12-28T06:27:19.237Z,-4.09
2022-12-28T06:31:40.124Z,-4.07
2022-12-28T06:35:57.303Z,-3.96
2022-12-28T06:40:14.869Z,-3.91
2022-12-28T06:44:31.717Z,-3.93
2022-12-28T06:48:49.468Z,-3.93
2022-12-28T06:53:06.314Z,-3.81
2022-12-28T06:57:23.382Z,-3.81
2022-12-28T07:01:44.584Z,-3.70
2022-12-28T07:06:03.827Z,-3.56
2022-12-28T07:10:20.680Z,-3.28
2022-12-28T07:14:37.744Z,-3.20
2022-12-28T07:18:56.029Z,-3.13
2022-12-28T07:23:13.145Z,-3.06
2022-12-28T07:27:30.028Z,-2.71
2022-12-28T07:31:47.174Z,-2.37
2022-12-28T07:36:10.262Z,-2.03
2022-12-28T07:40:27.673Z,-1.78
2022-12-28T07:44:49.149Z,-1.51
2022-12-28T07:49:07.327Z,-1.34
2022-12-28T07:53:24.151Z,-1.20
2022-12-28T07:57:41.255Z,-1.08
2022-12-28T08:01:58.320Z,-0.99
2022-12-28T08:06:20.405Z,-0.88
2022-12-28T08:10:37.268Z,-0.71
2022-12-28T08:14:54.341Z,-0.40
2022-12-28T08:19:12.303Z,-0.09
2022-12-28T08:23:32.240Z,0.25
2022-12-28T08:27:49.125Z,0.49
2022-12-28T08:32:07.737Z,0.80
2022-12-28T08:36:24.884Z,1.23
2022-12-28T08:40:42.309Z,1.51
2022-12-28T08:44:59.155Z,1.44
2022-12-28T08:49:16.235Z,1.97
2022-12-28T08:53:33.940Z,2.18
2022-12-28T08:57:50.789Z,2.08
2022-12-28T09:02:07.883Z,2.30
2022-12-28T09:06:30.821Z,2.42
2022-12-28T09:10:47.894Z,2.46
2022-12-28T09:15:05.358Z,2.35
2022-12-28T09:19:22.660Z,2.35
2022-12-28T09:23:40.793Z,2.47
2022-12-28T09:27:59.646Z,2.52
2022-12-28T09:32:16.661Z,2.64
2022-12-28T09:36:41.039Z,2.52
2022-12-28T09:40:59.068Z,2.66
2022-12-28T09:45:21.906Z,2.66
2022-12-28T09:49:57.422Z,2.73
2022-12-28T09:54:14.460Z,2.57
2022-12-28T09:58:34.049Z,2.45
2022-12-28T10:03:20.903Z,2.77
2022-12-28T10:07:38.151Z,2.54
2022-12-28T10:11:55.523Z,2.78
2022-12-28T10:16:20.921Z,2.81
2022-12-28T10:20:37.937Z,2.58
2022-12-28T10:24:55.074Z,2.83
2022-12-28T10:29:23.538Z,3.09
2022-12-28T10:33:50.341Z,3.09
2022-12-28T10:38:24.041Z,3.08
2022-12-28T10:42:44.390Z,2.91
2022-12-28T10:47:05.296Z,2.94
2022-12-28T10:51:27.897Z,3.06
2022-12-28T10:55:44.870Z,3.09
2022-12-28T11:00:22.564Z,3.27
2022-12-28T11:04:53.984Z,3.40
2022-12-28T11:09:36.484Z,3.53
2022-12-28T11:14:24.633Z,3.54
2022-12-28T11:18:42.000Z,3.54
2022-12-28T11:22:59.086Z,3.75
2022-12-28T11:27:19.900Z,3.89
2022-12-28T11:32:01.314Z,3.92
2022-12-28T11:36:22.917Z,3.84
2022-12-28T11:40:50.613Z,3.98
2022-12-28T11:45:17.247Z,3.94
2022-12-28T11:49:36.034Z,4.13
2022-12-28T11:54:24.075Z,4.40
2022-12-28T11:58:41.017Z,4.73
2022-12-28T12:03:01.536Z,5.57
2022-12-28T12:07:44.645Z,7.43
2022-12-28T12:12:24.606Z,9.33
2022-12-28T12:16:52.336Z,8.03
2022-12-28T12:21:15.844Z,7.68
2022-12-28T12:25:47.483Z,7.65
2022-12-28T12:30:18.428Z,6.40
2022-12-28T12:34:58.908Z,6.36
2022-12-28T12:39:47.360Z,6.32
2022-12-28T12:44:15.177Z,6.01
2022-12-28T12:49:02.426Z,6.22
2022-12-28T12:54:13.380Z,6.51
2022-12-28T12:59:24.769Z,6.46
2022-12-28T13:03:53.132Z,6.25
2022-12-28T13:08:40.481Z,6.20
2022-12-28T13:13:00.866Z,6.20
2022-12-28T13:17:21.947Z,6.08
2022-12-28T13:21:45.881Z,6.03
2022-12-28T13:26:03.637Z,5.98
2022-12-28T13:30:22.962Z,5.85
2022-12-28T13:34:41.221Z,5.81
2022-12-28T13:39:04.686Z,5.66
2022-12-28T13:44:08.795Z,5.60
2022-12-28T13:48:27.061Z,5.56
2022-12-28T13:52:59.878Z,5.47
2022-12-28T13:57:45.854Z,5.20
2022-12-28T14:01:56.270Z,5.06
2022-12-28T14:06:18.916Z,4.80
2022-12-28T14:10:36.791Z,4.66
2022-12-28T14:14:53.957Z,4.60
2022-12-28T14:19:11.888Z,4.53
2022-12-28T14:23:33.078Z,4.46
2022-12-28T14:28:06.502Z,4.39
2022-12-28T14:32:23.736Z,4.25
2022-12-28T14:36:49.889Z,4.15
2022-12-28T14:41:07.252Z,3.98
2022-12-28T14:46:07.011Z,3.80
2022-12-28T14:50:21.253Z,3.56
2022-12-28T14:55:20.121Z,3.44
2022-12-28T14:59:39.730Z,3.26
2022-12-28T15:03:58.873Z,3.29
2022-12-28T15:08:15.901Z,3.11
2022-12-28T15:12:36.187Z,2.96
2022-12-28T15:16:53.119Z,2.91
2022-12-28T15:21:12.972Z,2.89
2022-12-28T15:25:33.971Z,2.87
2022-12-28T15:30:07.837Z,2.99
2022-12-28T15:34:26.729Z,2.87
2022-12-28T15:38:43.922Z,2.74
2022-12-28T15:43:03.630Z,2.73
2022-12-28T15:47:21.274Z,2.49
2022-12-28T15:51:38.245Z,2.40
2022-12-28T15:56:00.940Z,2.37
2022-12-28T16:00:19.145Z,2.29
2022-12-28T16:04:36.196Z,2.18
2022-12-28T16:08:55.368Z,2.23
2022-12-28T16:13:12.332Z,2.08
2022-12-28T16:17:29.413Z,2.06
2022-12-28T16:21:48.490Z,1.97
2022-12-28T16:26:08.491Z,1.92
2022-12-28T16:30:25.482Z,1.75
2022-12-28T16:34:42.717Z,1.88
2022-12-28T16:39:00.110Z,2.05
2022-12-28T16:43:18.725Z,1.87
2022-12-28T16:47:40.883Z,1.87
2022-12-28T16:52:01.467Z,1.91
2022-12-28T16:56:18.386Z,1.71
2022-12-28T17:00:35.813Z,1.64
2022-12-28T17:04:52.710Z,1.56
2022-12-28T17:09:10.204Z,1.66
2022-12-28T17:13:27.130Z,1.38
2022-12-28T17:17:44.497Z,1.46
2022-12-28T17:22:01.863Z,1.47
2022-12-28T17:26:19.311Z,1.51
2022-12-28T17:30:36.284Z,1.36
2022-12-28T17:34:53.732Z,1.33
2022-12-28T17:39:10.691Z,1.26
2022-12-28T17:43:28.719Z,1.47
2022-12-28T17:47:45.883Z,1.44
2022-12-28T17:52:03.425Z,1.42
2022-12-28T17:56:20.775Z,1.44
2022-12-28T18:00:37.709Z,1.50
2022-12-28T18:04:54.752Z,1.40
2022-12-28T18:09:11.855Z,1.22
2022-12-28T18:13:29.018Z,1.19
2022-12-28T18:17:46.010Z,1.16
2022-12-28T18:22:03.523Z,1.09
2022-12-28T18:26:24.032Z,1.02
2022-12-28T18:30:42.640Z,1.19
2022-12-28T18:34:59.542Z,1.21
2022-12-28T18:39:16.649Z,1.11
2022-12-28T18:43:33.563Z,1.09
2022-12-28T18:47:50.614Z,1.06
2022-12-28T18:52:07.875Z,1.01
2022-12-28T18:56:24.970Z,0.96
2022-12-28T19:00:42.073Z,0.74
2022-12-28T19:04:59.054Z,0.74
2022-12-28T19:09:16.351Z,0.52
2022-12-28T19:13:35.978Z,0.33
2022-12-28T19:17:52.998Z,-0.06
2022-12-28T19:22:10.074Z,-0.56
2022-12-28T19:26:27.107Z,-0.60
2022-12-28T19:30:44.215Z,-0.48
2022-12-28T19:35:01.029Z,-0.33
2022-12-28T19:39:18.225Z,-0.44
2022-12-28T19:43:35.997Z,-0.37
2022-12-28T19:47:53.043Z,-0.69
2022-12-28T19:52:10.552Z,-0.84
2022-12-28T19:56:28.255Z,-1.15
2022-12-28T20:00:45.117Z,-1.37
2022-12-28T20:05:02.386Z,-1.47
2022-12-28T20:09:19.304Z,-1.55
2022-12-28T20:13:36.420Z,-1.64
2022-12-28T20:17:53.466Z,-1.78
2022-12-28T20:22:10.690Z,-1.78
2022-12-28T20:26:29.141Z,-1.86
2022-12-28T20:30:51.051Z,-1.95
2022-12-28T20:35:08.037Z,-2.05
2022-12-28T20:39:25.092Z,-2.10
2022-12-28T20:43:42.065Z,-2.05
2022-12-28T20:47:59.061Z,-2.05
2022-12-28T20:52:16.175Z,-2.20
2022-12-28T20:56:35.110Z,-2.19
2022-12-28T21:00:52.354Z,-2.24
2022-12-28T21:05:09.853Z,-2.27
2022-12-28T21:09:27.004Z,-2.36
2022-12-28T21:13:44.869Z,-2.36
2022-12-28T21:18:03.050Z,-2.30
2022-12-28T21:22:20.094Z,-2.48
2022-12-28T21:26:37.500Z,-2.56
2022-12-28T21:30:56.060Z,-2.53
2022-12-28T21:35:13.254Z,-2.56
2022-12-28T21:39:30.073Z,-2.58
2022-12-28T21:43:47.157Z,-2.57
2022-12-28T21:48:04.356Z,-2.61
2022-12-28T21:52:21.906Z,-2.60
2022-12-28T21:56:39.926Z,-2.72
2022-12-28T22:01:18.983Z,-2.72
2022-12-28T22:05:47.727Z,-2.77
2022-12-28T22:10:23.853Z,-2.78
2022-12-28T22:14:40.942Z,-2.41
2022-12-28T22:19:02.738Z,-2.54
2022-12-28T22:23:20.597Z,-2.54
2022-12-28T22:27:37.514Z,-2.46
2022-12-28T22:31:55.935Z,-2.40
2022-12-28T22:36:16.769Z,-2.44
2022-12-28T22:40:33.647Z,-2.44
2022-12-28T22:44:51.538Z,-2.40
2022-12-28T22:49:08.363Z,-2.37
2022-12-28T22:53:25.411Z,-2.32
2022-12-28T22:57:42.445Z,-2.21
2022-12-28T23:01:59.926Z,-2.19
2022-12-28T23:06:19.510Z,-2.10
2022-12-28T23:10:36.560Z,-1.19
2022-12-28T23:15:12.437Z,-0.71
2022-12-28T23:19:49.306Z,0.18
2022-12-28T23:24:32.371Z,0.43
2022-12-28T23:28:49.508Z,0.83
2022-12-28T23:33:06.471Z,0.88
2022-12-28T23:37:23.579Z,0.98
2022-12-28T23:41:49.622Z,1.22
2022-12-28T23:46:06.675Z,1.33
2022-12-28T23:50:23.841Z,1.42
2022-12-28T23:54:40.705Z,1.51
2022-12-28T23:58:58.020Z,1.42
